createdAt,value
2022-11-02T00:05:50.758Z,16.85
2022-11-02T00:11:54.155Z,16.84
2022-11-02T00:24:24.903Z,16.75
2022-11-02T00:30:27.968Z,16.69
2022-11-02T00:36:31.549Z,16.79
2022-11-02T00:42:34.532Z,16.75
2022-11-02T00:48:36.921Z,16.82
2022-11-02T00:54:40.103Z,16.81
2022-11-02T01:00:42.477Z,16.83
2022-11-02T01:06:45.943Z,16.80
2022-11-02T01:12:48.372Z,16.78
2022-11-02T01:18:53.629Z,16.84
2022-11-02T01:24:55.896Z,16.84
2022-11-02T01:30:59.246Z,16.91
2022-11-02T01:37:02.132Z,16.92
2022-11-02T01:43:22.607Z,16.73
2022-11-02T01:49:26.153Z,16.52
2022-11-02T01:55:34.248Z,16.62
2022-11-02T02:01:36.482Z,16.67
2022-11-02T02:07:41.301Z,16.72
2022-11-02T02:13:43.325Z,16.69
2022-11-02T02:20:00.594Z,16.76
2022-11-02T02:26:11.764Z,16.69
2022-11-02T02:32:14.600Z,16.76
2022-11-02T02:38:34.555Z,16.61
2022-11-02T02:44:39.017Z,16.54
2022-11-02T02:50:48.488Z,16.52
2022-11-02T02:56:57.385Z,16.26
2022-11-02T03:03:05.906Z,16.17
2022-11-02T03:09:21.189Z,16.16
2022-11-02T03:15:35.521Z,15.95
2022-11-02T03:21:43.832Z,16.05
2022-11-02T03:28:33.201Z,15.99
2022-11-02T03:34:47.061Z,16.05
2022-11-02T03:40:58.924Z,15.91
2022-11-02T03:47:04.172Z,15.82
2022-11-02T03:53:12.811Z,15.87
2022-11-02T03:59:17.279Z,16.09
2022-11-02T04:05:28.456Z,16.11
2022-11-02T04:11:50.256Z,15.95
2022-11-02T04:18:12.092Z,15.71
2022-11-02T04:24:35.230Z,15.64
2022-11-02T04:30:37.307Z,15.61
2022-11-02T04:36:41.223Z,15.52
2022-11-02T04:42:48.082Z,15.53
2022-11-02T04:48:51.595Z,15.26
2022-11-02T04:54:54.006Z,14.93
2022-11-02T05:07:40.440Z,14.97
2022-11-02T05:13:44.743Z,15.19
2022-11-02T13:44:41.157Z,25.98
2022-11-02T13:50:49.221Z,25.83
2022-11-02T13:56:55.288Z,25.65
2022-11-02T14:02:59.963Z,25.50
2022-11-02T14:09:05.295Z,25.29
2022-11-02T14:15:14.522Z,25.13
2022-11-02T14:21:44.790Z,24.91
2022-11-02T14:27:47.194Z,24.73
2022-11-02T14:33:59.619Z,24.62
2022-11-02T14:40:08.214Z,24.44
2022-11-02T14:46:48.921Z,24.28
2022-11-02T14:53:05.676Z,24.02
2022-11-02T14:59:18.382Z,23.87
2022-11-02T15:05:28.969Z,23.68
2022-11-02T15:11:43.009Z,23.52
2022-11-02T15:17:45.112Z,23.33
2022-11-02T15:23:57.968Z,23.12
2022-11-02T15:30:02.361Z,22.97
2022-11-02T15:36:08.050Z,22.73
2022-11-02T15:42:29.264Z,22.52
2022-11-02T15:48:43.049Z,22.40
2022-11-02T15:55:19.718Z,22.22
2022-11-02T16:01:27.724Z,22.09
2022-11-02T16:07:50.308Z,21.93
2022-11-02T16:14:17.906Z,21.82
2022-11-02T16:20:35.655Z,21.71
2022-11-02T16:26:37.661Z,21.63
2022-11-02T16:32:39.688Z,21.49
2022-11-02T16:38:59.367Z,21.36
2022-11-02T16:45:04.457Z,21.31
2022-11-02T16:51:14.902Z,21.18
2022-11-02T16:57:23.758Z,21.14
2022-11-02T17:03:33.309Z,21.05
2022-11-02T17:09:35.637Z,20.89
2022-11-02T17:15:41.726Z,20.82
2022-11-02T17:21:44.541Z,20.73
2022-11-02T17:27:50.115Z,20.60
2022-11-02T17:33:58.898Z,20.55
2022-11-02T17:40:02.974Z,20.42
2022-11-02T17:46:05.237Z,20.36
2022-11-02T17:52:13.909Z,20.30
2022-11-02T17:58:17.871Z,20.24
2022-11-02T18:04:22.004Z,20.19
2022-11-02T18:10:28.918Z,20.19
2022-11-02T18:16:32.231Z,20.08
2022-11-02T18:22:42.195Z,19.97
2022-11-02T18:28:46.417Z,19.89
2022-11-02T18:34:48.368Z,19.76
2022-11-02T18:40:51.236Z,19.71
2022-11-02T18:46:56.884Z,19.54
2022-11-02T18:52:59.491Z,19.58
2022-11-02T18:59:04.450Z,19.53
2022-11-02T19:05:26.993Z,19.40
2022-11-02T19:11:29.194Z,19.38
2022-11-02T19:17:34.876Z,19.35
2022-11-02T19:23:36.830Z,19.27
2022-11-02T19:29:39.073Z,19.12
2022-11-02T19:35:41.543Z,19.00
2022-11-02T19:41:43.940Z,18.99
2022-11-02T19:47:45.999Z,18.99
2022-11-02T19:53:50.744Z,18.95
2022-11-02T19:59:55.889Z,18.92
2022-11-02T20:06:02.367Z,18.89
2022-11-02T20:12:10.662Z,18.93
2022-11-02T20:18:19.360Z,18.95
2022-11-02T20:24:21.907Z,18.93
2022-11-02T20:30:25.313Z,19.09
2022-11-02T20:36:28.052Z,19.13
2022-11-02T20:42:31.228Z,19.09
2022-11-02T20:48:33.383Z,19.04
2022-11-02T20:54:39.062Z,19.01
2022-11-02T21:00:42.484Z,18.93
2022-11-02T21:06:44.895Z,18.76
2022-11-02T21:13:05.637Z,18.59
2022-11-02T21:19:07.885Z,18.44
2022-11-02T21:25:10.649Z,18.34
2022-11-02T21:31:18.760Z,18.16
2022-11-02T21:37:20.705Z,18.13
2022-11-02T21:43:23.214Z,18.10
2022-11-02T21:49:25.192Z,18.07
2022-11-02T21:55:27.545Z,18.12
2022-11-02T22:01:48.642Z,18.28
2022-11-02T22:08:12.094Z,18.35
2022-11-02T22:14:14.353Z,18.50
2022-11-02T22:20:18.536Z,18.56
2022-11-02T22:26:23.421Z,18.69
2022-11-02T22:32:25.702Z,18.78
2022-11-02T22:38:47.598Z,18.82
2022-11-02T22:44:49.533Z,18.87
2022-11-02T22:50:52.524Z,18.83
2022-11-02T22:56:56.055Z,18.93
2022-11-02T23:02:58.122Z,19.01
2022-11-02T23:09:00.762Z,18.93
2022-11-02T23:15:03.974Z,18.90
2022-11-02T23:21:08.661Z,18.90
2022-11-02T23:27:10.956Z,18.86
2022-11-02T23:33:15.721Z,18.92
2022-11-02T23:39:36.314Z,18.92
2022-11-02T23:45:39.357Z,18.88
2022-11-02T23:51:59.959Z,18.85
2022-11-02T23:58:05.253Z,18.63
